Time;durP1;ratioP1;P1;durP2;ratioP2;P2;SDS_P1;SDS_P2;PMS_P1;PMS_P2;Temp;Humidity;BMP_temperature;BMP_pressure;BME280_temperature;BME280_humidity;BME280_pressure;Samples;Min_cycle;Max_cycle;Signal;HPM_P1;HPM_P2
2021/09/23 04:16:55;;;;;;;12.35;7.22;;;;;;;6.69;100.00;99422.22;5261204;23;20538;-78
2021/09/23 04:19:20;;;;;;;11.45;7.35;;;;;;;6.64;100.00;99418.75;4953419;28;20035;-78
2021/09/23 04:21:46;;;;;;;16.55;7.95;;;;;;;6.63;100.00;99417.03;4953784;28;20099;-78
2021/09/23 04:24:11;;;;;;;11.13;7.80;;;;;;;6.62;100.00;99418.75;4956874;28;20043;-78
2021/09/23 04:26:37;;;;;;;12.80;7.32;;;;;;;6.65;100.00;99416.16;4956779;28;20400;-78
2021/09/23 04:29:03;;;;;;;10.95;7.13;;;;;;;6.65;100.00;99405.00;4969612;23;20024;-72
2021/09/23 04:31:28;;;;;;;8.48;7.30;;;;;;;6.58;100.00;99392.97;4930252;29;20042;-72
2021/09/23 04:33:54;;;;;;;7.15;6.45;;;;;;;6.57;100.00;99398.94;4933117;29;20114;-72
2021/09/23 04:36:19;;;;;;;12.13;7.18;;;;;;;6.49;100.00;99398.88;4931794;29;20162;-73
2021/09/23 04:38:44;;;;;;;13.27;7.07;;;;;;;6.47;100.00;99402.28;4932554;29;20388;-72
2021/09/23 04:41:11;;;;;;;12.95;6.72;;;;;;;6.48;100.00;99402.31;4934618;29;20381;-72
2021/09/23 04:43:38;;;;;;;13.43;7.03;;;;;;;6.42;100.00;99402.25;4929377;29;20031;-74
2021/09/23 04:46:03;;;;;;;7.57;6.53;;;;;;;6.40;100.00;99403.97;4930781;29;20028;-71
2021/09/23 04:48:29;;;;;;;9.70;6.63;;;;;;;6.37;100.00;99399.63;4922676;29;20104;-72
2021/09/23 04:50:54;;;;;;;9.68;6.60;;;;;;;6.26;100.00;99401.25;4928906;29;20097;-75
2021/09/23 04:53:20;;;;;;;8.82;6.45;;;;;;;6.23;100.00;99390.91;4936706;29;20020;-70
2021/09/23 04:55:45;;;;;;;8.95;6.70;;;;;;;6.17;100.00;99378.88;4929938;29;20040;-72
2021/09/23 04:58:10;;;;;;;6.88;6.15;;;;;;;6.11;100.00;99381.38;4922695;29;20027;-74
2021/09/23 05:00:36;;;;;;;8.98;6.28;;;;;;;6.31;100.00;99378.13;4930313;29;20456;-74
2021/09/23 05:03:01;;;;;;;13.55;7.28;;;;;;;6.21;100.00;99384.91;4930165;29;20024;-72
2021/09/23 05:05:29;;;;;;;14.00;7.07;;;;;;;6.09;100.00;99382.22;4930614;29;20027;-72
2021/09/23 05:07:54;;;;;;;8.27;6.28;;;;;;;6.03;100.00;99387.28;4923680;29;20034;-71
2021/09/23 05:10:20;;;;;;;10.20;6.75;;;;;;;6.10;100.00;99389.09;4930679;29;20024;-71
2021/09/23 05:12:45;;;;;;;8.35;6.70;;;;;;;6.10;100.00;99378.81;4932591;29;20374;-73
2021/09/23 05:15:14;;;;;;;12.38;7.28;;;;;;;6.20;100.00;99382.34;4929229;29;20024;-75
2021/09/23 05:17:39;;;;;;;16.38;7.03;;;;;;;6.16;100.00;99384.88;4925406;29;20060;-75
2021/09/23 05:20:07;;;;;;;9.02;7.22;;;;;;;6.25;100.00;99376.38;4925097;29;20111;-75
2021/09/23 05:22:32;;;;;;;12.55;7.75;;;;;;;6.35;100.00;99374.75;4932100;29;20032;-74
2021/09/23 05:24:58;;;;;;;10.23;6.93;;;;;;;6.42;100.00;99372.22;4923933;29;20034;-74
2021/09/23 05:27:23;;;;;;;14.32;7.55;;;;;;;6.40;100.00;99368.78;4927882;29;20031;-74
2021/09/23 05:29:49;;;;;;;13.45;7.25;;;;;;;6.54;100.00;99361.19;4926555;29;20416;-77
2021/09/23 05:32:14;;;;;;;8.65;6.82;;;;;;;6.67;100.00;99363.00;4928790;29;20020;-76
2021/09/23 05:34:40;;;;;;;17.52;8.38;;;;;;;6.53;100.00;99358.59;4920252;29;20602;-72
2021/09/23 05:37:05;;;;;;;10.38;6.90;;;;;;;6.57;100.00;99352.59;4927852;29;20107;-72
2021/09/23 05:39:31;;;;;;;8.02;6.70;;;;;;;6.72;100.00;99360.44;4918986;29;20055;-72
2021/09/23 05:41:56;;;;;;;7.60;6.35;;;;;;;6.86;100.00;99358.81;4930225;29;20024;-71
2021/09/23 05:44:25;;;;;;;11.25;6.40;;;;;;;7.11;99.33;99349.53;4928189;29;20417;-72
2021/09/23 05:46:52;;;;;;;7.75;5.97;;;;;;;7.63;97.30;99343.69;4930068;29;20024;-72
2021/09/23 05:49:17;;;;;;;9.00;5.80;;;;;;;7.97;92.74;99340.31;4926070;29;20082;-75
2021/09/23 05:51:42;;;;;;;8.32;5.90;;;;;;;8.73;89.84;99336.06;4925090;29;20024;-72
2021/09/23 05:54:08;;;;;;;10.77;5.45;;;;;;;9.19;84.94;99330.78;4928006;29;20047;-72
2021/09/23 05:56:33;;;;;;;8.50;4.78;;;;;;;9.57;83.22;99324.56;4937651;29;20035;-72
2021/09/23 05:58:59;;;;;;;6.85;4.55;;;;;;;9.43;83.31;99327.25;4942117;29;20032;-72
2021/09/23 06:01:24;;;;;;;7.53;4.05;;;;;;;9.85;82.26;99320.97;4923113;29;20032;-75
2021/09/23 06:03:49;;;;;;;8.35;4.53;;;;;;;11.23;77.16;99330.13;4929245;29;20075;-75
2021/09/23 06:06:15;;;;;;;6.20;4.03;;;;;;;12.26;71.58;99321.78;4916980;29;20027;-75
2021/09/23 06:08:40;;;;;;;10.20;3.95;;;;;;;12.25;69.53;99323.53;4918858;29;20428;-72
2021/09/23 06:11:06;;;;;;;5.60;3.92;;;;;;;11.91;70.83;99328.41;4925020;29;20027;-74
2021/09/23 06:13:31;;;;;;;4.60;3.92;;;;;;;10.97;74.02;99333.84;4929458;29;20123;-74
2021/09/23 06:15:56;;;;;;;6.45;3.90;;;;;;;11.00;74.25;99336.41;4930148;29;20519;-74
2021/09/23 06:18:22;;;;;;;9.15;5.40;;;;;;;11.46;73.74;99322.94;4923314;29;20076;-72
2021/09/23 06:20:49;;;;;;;9.65;4.22;;;;;;;11.37;73.00;99328.22;4923503;29;20674;-75
2021/09/23 06:23:15;;;;;;;6.90;4.18;;;;;;;12.44;69.66;99338.84;4929447;29;20374;-73
2021/09/23 06:25:40;;;;;;;5.65;3.72;;;;;;;13.62;65.00;99330.53;4922011;29;20027;-75
2021/09/23 06:28:05;;;;;;;6.15;4.15;;;;;;;12.76;66.76;99343.47;4927199;29;20078;-72
2021/09/23 06:30:31;;;;;;;8.65;4.05;;;;;;;12.46;69.46;99343.13;4920667;29;20024;-72
2021/09/23 06:32:56;;;;;;;6.13;3.95;;;;;;;12.22;70.67;99356.50;4924356;29;20135;-72
2021/09/23 06:35:22;;;;;;;4.13;3.67;;;;;;;12.15;70.78;99350.53;4921537;29;20028;-72
2021/09/23 06:37:48;;;;;;;7.95;4.05;;;;;;;12.37;70.49;99355.41;4925180;29;20035;-72
2021/09/23 06:40:13;;;;;;;10.15;4.30;;;;;;;11.02;75.07;99352.84;4927512;29;20024;-72
2021/09/23 06:42:40;;;;;;;6.65;4.20;;;;;;;10.40;78.36;99363.78;4924945;29;20032;-72
2021/09/23 06:45:06;;;;;;;6.68;4.28;;;;;;;10.20;81.03;99363.88;4926125;29;20107;-72
2021/09/23 06:47:31;;;;;;;6.35;4.57;;;;;;;9.94;82.05;99362.31;4920087;29;20103;-72
2021/09/23 06:49:57;;;;;;;11.57;5.00;;;;;;;9.83;82.91;99353.78;4929518;29;20086;-72
2021/09/23 06:52:22;;;;;;;6.25;4.35;;;;;;;9.66;83.88;99350.41;4922257;29;20072;-72
2021/09/23 06:54:47;;;;;;;8.32;5.85;;;;;;;9.12;86.79;99350.63;4926118;29;20036;-72
2021/09/23 06:57:13;;;;;;;13.50;5.78;;;;;;;8.99;88.46;99357.56;4918393;29;20020;-71
2021/09/23 06:59:39;;;;;;;8.80;4.90;;;;;;;9.22;88.71;99348.88;4924282;29;20103;-72
2021/09/23 07:02:04;;;;;;;10.90;5.50;;;;;;;9.73;87.45;99342.59;4922738;29;20469;-72
2021/09/23 07:04:29;;;;;;;12.27;4.43;;;;;;;10.37;85.99;99340.47;4926174;29;20554;-72
2021/09/23 07:06:55;;;;;;;8.40;5.07;;;;;;;11.66;79.27;99333.03;4925961;29;20034;-72
2021/09/23 07:09:20;;;;;;;6.05;4.30;;;;;;;13.34;73.87;99322.47;4927145;29;20020;-72
2021/09/23 07:11:45;;;;;;;8.75;4.22;;;;;;;14.76;67.77;99325.28;4925469;29;20454;-72
2021/09/23 07:14:11;;;;;;;6.70;3.88;;;;;;;14.81;65.05;99328.63;4927908;29;20020;-72
2021/09/23 07:16:36;;;;;;;5.55;4.05;;;;;;;14.78;66.30;99326.06;4922012;29;20020;-72
2021/09/23 07:19:01;;;;;;;7.45;4.25;;;;;;;15.92;60.96;99324.59;4920134;29;20024;-72
2021/09/23 07:21:27;;;;;;;8.27;4.20;;;;;;;13.93;66.51;99335.09;4924603;29;20020;-72
2021/09/23 07:23:53;;;;;;;7.18;4.57;;;;;;;13.36;69.07;99335.44;4920862;29;20015;-72
2021/09/23 07:26:19;;;;;;;7.53;4.07;;;;;;;12.70;72.58;99338.38;4924967;29;20027;-73
2021/09/23 07:28:45;;;;;;;4.30;3.92;;;;;;;12.76;73.41;99333.91;4930847;29;20429;-73
2021/09/23 07:31:10;;;;;;;5.13;4.32;;;;;;;12.76;74.40;99343.47;4928660;29;20091;-73
2021/09/23 07:33:36;;;;;;;6.78;4.28;;;;;;;12.58;75.39;99345.53;4918624;29;20099;-73
2021/09/23 07:36:02;;;;;;;9.68;4.75;;;;;;;12.25;77.09;99335.69;4923441;29;20130;-73
2021/09/23 07:38:27;;;;;;;6.72;4.57;;;;;;;12.36;76.35;99333.75;4917068;29;20424;-73
2021/09/23 07:40:53;;;;;;;7.00;4.95;;;;;;;12.17;78.39;99330.59;4923872;29;20063;-73
2021/09/23 07:43:18;;;;;;;15.00;5.97;;;;;;;12.35;77.79;99332.91;4920125;29;20496;-73
2021/09/23 07:45:44;;;;;;;9.82;4.97;;;;;;;12.39;78.47;99328.53;4923323;29;20047;-72
2021/09/23 07:48:09;;;;;;;6.55;4.95;;;;;;;12.58;77.38;99323.88;4920491;29;20024;-72
2021/09/23 07:50:34;;;;;;;9.43;5.15;;;;;;;12.72;76.60;99324.50;4921605;29;20266;-72
2021/09/23 07:53:00;;;;;;;7.72;5.30;;;;;;;12.85;76.94;99328.56;4925860;29;20026;-72
2021/09/23 07:55:25;;;;;;;9.32;5.07;;;;;;;13.15;76.90;99330.59;4921094;29;20469;-73
2021/09/23 07:57:50;;;;;;;9.07;5.00;;;;;;;13.44;75.39;99320.53;4921770;29;20035;-72
2021/09/23 08:00:16;;;;;;;8.57;5.00;;;;;;;13.67;74.98;99324.38;4937895;29;20024;-72
2021/09/23 08:02:43;;;;;;;10.05;5.03;;;;;;;13.96;73.80;99327.19;4927457;29;20032;-72
2021/09/23 08:05:09;;;;;;;11.02;5.50;;;;;;;14.97;69.04;99329.91;4920604;29;20030;-73
2021/09/23 08:07:34;;;;;;;5.70;4.78;;;;;;;16.90;63.95;99326.63;4928952;29;20031;-73
2021/09/23 08:09:59;;;;;;;7.35;4.80;;;;;;;19.16;54.68;99324.75;4925919;29;20024;-73
2021/09/23 08:12:27;;;;;;;7.90;4.30;;;;;;;19.67;49.96;99332.06;4933074;29;20052;-73
2021/09/23 08:14:52;;;;;;;6.50;4.05;;;;;;;23.71;42.65;99325.09;4928768;29;20042;-77
2021/09/23 08:17:18;;;;;;;7.70;2.95;;;;;;;25.13;38.56;99328.97;4945116;28;20409;-76
2021/09/23 08:19:43;;;;;;;7.82;3.58;;;;;;;27.30;33.88;99318.31;4934725;29;20918;-76
2021/09/23 08:22:08;;;;;;;7.78;3.92;;;;;;;29.69;29.69;99315.31;4934564;29;20028;-77
2021/09/23 08:24:35;;;;;;;12.65;3.08;;;;;;;29.95;28.54;99320.16;4937715;29;20030;-76
2021/09/23 08:27:01;;;;;;;5.25;3.20;;;;;;;29.90;28.52;99317.88;4928179;29;20034;-76
2021/09/23 08:29:26;;;;;;;5.28;3.00;;;;;;;29.58;28.90;99317.22;4932627;29;20028;-76
2021/09/23 08:31:51;;;;;;;5.25;3.47;;;;;;;30.18;28.07;99305.59;4933195;29;20015;-76
2021/09/23 08:34:17;;;;;;;6.20;3.10;;;;;;;31.01;26.69;99297.09;4928404;29;20459;-76
2021/09/23 08:36:43;;;;;;;8.45;3.10;;;;;;;31.34;27.27;99291.25;4929147;29;20032;-76
2021/09/23 08:39:10;;;;;;;5.03;3.60;;;;;;;29.34;28.10;99299.66;4937085;29;20027;-77
2021/09/23 08:41:35;;;;;;;8.73;3.70;;;;;;;24.40;36.62;99308.25;4924219;29;20385;-76
2021/09/23 08:44:01;;;;;;;8.50;3.00;;;;;;;29.90;28.47;99291.16;4943294;28;20027;-76
2021/09/23 08:46:31;;;;;;;3.78;2.30;;;;;;;31.73;25.35;99289.22;4930660;29;20397;-76
2021/09/23 08:48:57;;;;;;;5.10;2.50;;;;;;;30.84;25.75;99287.97;4936960;29;20020;-77
2021/09/23 08:51:24;;;;;;;3.78;2.33;;;;;;;30.18;27.15;99283.38;4944442;29;20082;-77
2021/09/23 08:53:49;;;;;;;4.82;2.28;;;;;;;31.58;25.50;99284.50;4932182;29;20034;-77
2021/09/23 08:56:15;;;;;;;7.13;2.45;;;;;;;30.43;27.56;99281.94;4937718;29;20023;-77
2021/09/23 08:58:40;;;;;;;4.13;2.65;;;;;;;33.13;24.17;99283.28;4932366;28;20497;-77
2021/09/23 09:01:15;;;;;;;6.78;2.53;;;;;;;33.49;23.52;99278.59;4933268;29;20516;-77
2021/09/23 09:03:41;;;;;;;5.22;2.40;;;;;;;29.70;27.83;99284.09;4931557;29;20405;-77
2021/09/23 09:06:08;;;;;;;6.10;2.33;;;;;;;31.53;26.08;99273.41;4930425;29;20028;-77
2021/09/23 09:08:36;;;;;;;5.80;2.42;;;;;;;32.40;24.95;99281.72;4921676;29;20028;-77
2021/09/23 09:11:03;;;;;;;3.45;2.33;;;;;;;31.53;24.76;99270.72;4925739;29;20028;-77
2021/09/23 09:13:33;;;;;;;5.15;3.88;;;;;;;32.38;23.68;99272.97;4919879;29;20055;-77
2021/09/23 09:16:16;;;;;;;8.80;4.55;;;;;;;31.32;25.25;99262.91;4925335;29;20476;-77
2021/09/23 09:18:43;;;;;;;3.88;2.20;;;;;;;31.33;25.71;99268.13;4920062;29;20648;-77
2021/09/23 09:21:11;;;;;;;4.18;2.78;;;;;;;30.42;26.74;99265.06;4928426;29;20019;-77
2021/09/23 09:24:04;;;;;;;6.03;3.00;;;;;;;30.03;27.39;99250.00;4925686;29;20022;-77
2021/09/23 09:26:41;;;;;;;4.30;2.45;;;;;;;29.35;27.88;99248.00;4928280;29;20264;-77
2021/09/23 09:29:08;;;;;;;5.20;2.33;;;;;;;30.49;27.15;99243.94;4930797;29;20019;-77
2021/09/23 09:31:35;;;;;;;5.05;2.50;;;;;;;31.72;26.01;99243.81;4927052;29;20087;-77
2021/09/23 09:34:03;;;;;;;4.60;2.40;;;;;;;30.48;27.61;99249.44;4925265;29;20387;-77
2021/09/23 09:36:40;;;;;;;6.65;2.47;;;;;;;29.77;28.14;99247.81;4931502;29;20015;-77
2021/09/23 09:39:16;;;;;;;4.22;2.42;;;;;;;31.60;26.50;99240.47;4924867;29;20024;-77
2021/09/23 09:41:44;;;;;;;4.18;2.25;;;;;;;32.99;24.41;99229.16;4920511;29;20363;-76
2021/09/23 09:44:11;;;;;;;35.22;28.40;;;;;;;32.03;25.02;99230.06;4931273;29;20553;-76
2021/09/23 09:46:52;;;;;;;3.15;2.20;;;;;;;34.74;21.99;99221.13;4932401;29;20028;-76
2021/09/23 09:49:22;;;;;;;3.88;2.47;;;;;;;30.75;26.82;99222.78;4927860;29;20024;-76
2021/09/23 09:51:49;;;;;;;3.83;2.50;;;;;;;33.24;23.96;99205.09;4930613;29;20024;-76
2021/09/23 09:54:16;;;;;;;5.45;2.42;;;;;;;32.66;24.75;99200.41;4927187;29;20037;-76
2021/09/23 09:56:44;;;;;;;4.15;2.22;;;;;;;32.36;25.25;99194.50;4927757;29;20590;-76
2021/09/23 09:59:12;;;;;;;4.07;2.45;;;;;;;33.13;23.68;99191.97;4925576;29;20035;-76
2021/09/23 10:01:40;;;;;;;4.90;2.35;;;;;;;32.29;25.69;99201.44;4928343;29;20046;-77
2021/09/23 10:04:06;;;;;;;4.18;2.10;;;;;;;32.99;24.11;99199.63;4924780;29;20023;-77
2021/09/23 10:06:32;;;;;;;7.10;2.03;;;;;;;32.46;24.66;99192.56;4928079;29;20083;-76
2021/09/23 10:08:57;;;;;;;7.93;2.40;;;;;;;31.72;26.65;99190.22;4933394;29;20051;-76
2021/09/23 10:11:24;;;;;;;7.07;2.28;;;;;;;31.23;26.22;99181.56;4944077;28;20493;-76
2021/09/23 10:13:50;;;;;;;3.30;2.05;;;;;;;31.66;26.02;99185.44;4921605;29;20071;-76
2021/09/23 10:16:16;;;;;;;3.65;1.90;;;;;;;31.82;25.46;99182.97;4926146;29;20149;-76
2021/09/23 10:18:43;;;;;;;4.10;1.88;;;;;;;31.85;26.02;99179.97;4921079;29;20561;-76
2021/09/23 10:21:09;;;;;;;2.40;1.80;;;;;;;33.99;23.37;99183.63;4929382;29;20477;-77
2021/09/23 10:23:41;;;;;;;6.57;2.10;;;;;;;32.67;23.96;99185.97;4927818;29;20031;-76
2021/09/23 10:26:14;;;;;;;3.78;1.63;;;;;;;32.15;25.41;99177.88;4924282;29;20020;-76
2021/09/23 10:28:45;;;;;;;2.88;1.50;;;;;;;33.56;22.59;99171.28;4923041;29;20054;-76
2021/09/23 10:31:16;;;;;;;3.78;1.70;;;;;;;32.04;24.33;99184.31;4958165;23;20436;-72
2021/09/23 10:33:42;;;;;;;3.03;1.50;;;;;;;31.78;25.14;99186.91;4947175;29;20035;-72
2021/09/23 10:36:09;;;;;;;4.72;1.70;;;;;;;32.70;23.93;99180.31;4939446;28;20082;-72
2021/09/23 10:38:35;;;;;;;2.60;1.50;;;;;;;31.79;25.61;99179.72;4951341;29;20078;-72
2021/09/23 10:41:02;;;;;;;1.58;1.20;;;;;;;30.71;26.09;99178.59;4949209;28;20028;-72
2021/09/23 10:43:28;;;;;;;4.03;1.67;;;;;;;30.50;25.10;99177.91;4938923;29;20024;-72
2021/09/23 10:45:54;;;;;;;10.95;7.80;;;;;;;31.70;24.73;99170.75;4944470;29;20036;-74
2021/09/23 10:48:21;;;;;;;5.18;3.65;;;;;;;31.51;24.84;99176.25;4940783;29;20110;-72
2021/09/23 10:50:48;;;;;;;1.70;1.40;;;;;;;31.36;24.54;99179.44;4948193;29;20023;-72
2021/09/23 10:53:14;;;;;;;2.08;1.40;;;;;;;31.31;24.78;99176.38;4950920;28;20039;-72
2021/09/23 10:55:41;;;;;;;4.07;1.77;;;;;;;31.92;24.19;99173.00;4909080;28;20489;-72
2021/09/23 10:58:08;;;;;;;5.40;1.60;;;;;;;31.32;24.77;99172.69;4958362;28;20027;-72
2021/09/23 11:00:35;;;;;;;3.13;1.70;;;;;;;32.36;24.20;99178.41;4966125;28;20046;-72
2021/09/23 11:03:09;;;;;;;3.60;1.52;;;;;;;30.65;25.84;99179.13;4958648;28;20049;-72
2021/09/23 11:05:36;;;;;;;2.65;1.48;;;;;;;29.55;26.63;99178.63;4959716;28;20058;-72
2021/09/23 11:08:09;;;;;;;3.33;1.60;;;;;;;31.77;25.09;99171.84;4960214;28;20070;-72
2021/09/23 11:10:39;;;;;;;3.33;1.52;;;;;;;30.65;24.85;99157.72;4953486;28;20015;-72
2021/09/23 11:13:05;;;;;;;2.08;1.50;;;;;;;32.39;23.81;99172.72;4959746;28;20035;-72
2021/09/23 11:15:31;;;;;;;5.13;1.70;;;;;;;31.50;25.04;99174.56;4952698;28;20024;-72
2021/09/23 11:17:58;;;;;;;1.42;1.30;;;;;;;30.27;25.62;99159.53;4959276;28;20037;-72
2021/09/23 11:20:27;;;;;;;2.55;1.60;;;;;;;29.37;27.17;99162.41;4958158;28;20027;-72
2021/09/23 11:22:54;;;;;;;;;;;;;;;31.94;24.90;99157.59;4957592;28;20512;-73
2021/09/23 11:25:28;;;;;;;5.25;2.38;;;;;;;31.52;25.08;99156.50;4958918;28;19945;-72
2021/09/23 11:27:55;;;;;;;4.32;1.50;;;;;;;32.65;23.77;99145.06;4959920;28;20033;-71
2021/09/23 11:30:23;;;;;;;2.13;1.60;;;;;;;32.47;23.75;99131.69;4956892;28;20030;-69
2021/09/23 11:33:04;;;;;;;4.38;1.50;;;;;;;32.30;24.90;99133.41;4962076;28;20030;-70
2021/09/23 11:35:33;;;;;;;2.53;1.70;;;;;;;31.88;24.30;99120.69;4958466;28;20086;-72
2021/09/23 11:37:59;;;;;;;4.55;1.67;;;;;;;31.42;24.64;99114.53;4964530;28;20085;-70
2021/09/23 11:40:31;;;;;;;2.00;1.80;;;;;;;31.20;25.46;99104.25;4963049;28;20400;-70
2021/09/23 11:42:59;;;;;;;1.48;1.38;;;;;;;31.62;24.54;99098.31;4963083;28;20035;-70
2021/09/23 11:45:27;;;;;;;6.23;1.40;;;;;;;31.89;23.79;99103.59;4960908;28;20023;-70
2021/09/23 11:47:57;;;;;;;4.50;1.48;;;;;;;33.81;22.64;99095.06;4968831;28;20343;-70
2021/09/23 11:50:45;;;;;;;3.60;1.70;;;;;;;31.02;26.09;99103.38;4962323;28;20035;-70
2021/09/23 11:53:20;;;;;;;1.70;1.60;;;;;;;32.95;23.48;99092.69;4963647;28;20033;-70
2021/09/23 11:56:00;;;;;;;3.58;1.50;;;;;;;33.40;22.66;99091.44;4956758;28;20031;-70
2021/09/23 11:58:27;;;;;;;12.70;10.13;;;;;;;33.38;23.33;99083.56;4960081;28;20102;-70
2021/09/23 12:00:53;;;;;;;2.00;1.35;;;;;;;30.24;27.51;99082.28;4956053;28;20162;-70
2021/09/23 12:03:20;;;;;;;5.88;1.55;;;;;;;31.15;25.67;99080.59;4956230;28;20102;-70
2021/09/23 12:05:47;;;;;;;2.55;1.88;;;;;;;28.75;28.47;99068.25;4958613;28;20023;-70
2021/09/23 12:08:21;;;;;;;2.55;1.83;;;;;;;26.31;33.12;99068.97;4956593;28;20059;-70
2021/09/23 12:11:07;;;;;;;5.18;2.05;;;;;;;26.32;33.35;99064.50;4956110;28;20030;-70
2021/09/23 12:13:54;;;;;;;5.00;2.08;;;;;;;25.26;34.87;99056.59;4961535;28;20039;-70
2021/09/23 12:16:23;;;;;;;3.63;2.10;;;;;;;24.93;36.78;99051.06;4957989;28;20027;-70
2021/09/23 12:18:49;;;;;;;2.08;1.88;;;;;;;23.77;37.65;99045.00;4958636;28;20027;-71
2021/09/23 12:21:19;;;;;;;3.45;2.15;;;;;;;24.01;38.14;99042.50;4957679;28;20078;-70
2021/09/23 12:23:47;;;;;;;3.47;2.00;;;;;;;24.17;38.38;99036.97;4956434;28;20031;-72
2021/09/23 12:26:19;;;;;;;4.35;2.03;;;;;;;24.32;37.48;99030.63;4955992;28;20027;-71
2021/09/23 12:28:55;;;;;;;3.72;1.90;;;;;;;23.65;38.94;99019.41;4960330;28;20027;-71
2021/09/23 12:31:44;;;;;;;2.00;1.90;;;;;;;23.79;39.23;99015.81;4956254;28;20085;-73
2021/09/23 12:34:15;;;;;;;2.90;1.90;;;;;;;23.31;40.93;99021.63;4966239;28;20039;-73
2021/09/23 12:36:49;;;;;;;2.10;1.90;;;;;;;22.78;40.93;99022.47;4955609;28;20275;-73
2021/09/23 12:39:23;;;;;;;4.15;2.72;;;;;;;23.27;40.76;99011.34;4955881;28;20023;-73
2021/09/23 12:41:52;;;;;;;5.50;2.35;;;;;;;23.23;40.19;99007.22;4957611;28;20030;-73
2021/09/23 12:44:19;;;;;;;6.15;2.50;;;;;;;23.46;39.94;98993.31;4959587;28;20030;-73
2021/09/23 12:46:45;;;;;;;4.80;2.20;;;;;;;23.20;40.37;99002.97;4961166;28;20523;-73
2021/09/23 12:49:16;;;;;;;2.60;2.40;;;;;;;22.88;41.26;98997.13;4960913;28;20115;-73
2021/09/23 12:51:42;;;;;;;8.93;2.67;;;;;;;22.74;42.03;98994.53;4955816;28;20380;-73
2021/09/23 12:54:25;;;;;;;2.40;1.98;;;;;;;22.75;43.21;98993.56;4961359;28;20027;-74
2021/09/23 12:57:05;;;;;;;3.40;2.40;;;;;;;23.21;40.78;98994.09;4955335;28;20682;-74
2021/09/23 12:59:32;;;;;;;6.53;1.75;;;;;;;23.38;39.28;98985.03;4955456;28;20114;-74
2021/09/23 13:02:09;;;;;;;2.13;1.90;;;;;;;23.94;39.58;98987.44;4961570;28;20023;-74
2021/09/23 13:04:35;;;;;;;7.30;2.20;;;;;;;23.87;38.20;98981.72;4959491;28;20074;-74
2021/09/23 13:07:16;;;;;;;3.58;1.90;;;;;;;23.33;39.15;98982.69;4960324;28;20046;-74
2021/09/23 13:10:03;;;;;;;2.08;1.88;;;;;;;23.66;38.34;98976.09;4959892;28;20388;-74
2021/09/23 13:12:56;;;;;;;5.35;2.25;;;;;;;23.24;40.97;98972.72;4955526;28;20420;-74
2021/09/23 13:15:21;;;;;;;2.90;2.17;;;;;;;23.44;40.13;98967.91;4948249;28;20039;-74
2021/09/23 13:18:10;;;;;;;4.30;2.00;;;;;;;22.89;40.30;98976.88;4957788;28;20388;-74
2021/09/23 13:20:46;;;;;;;1.80;1.70;;;;;;;23.49;38.93;98963.97;4956481;28;20468;-74
2021/09/23 13:23:24;;;;;;;2.97;1.83;;;;;;;23.24;38.90;98956.88;4963354;28;20035;-74
2021/09/23 13:25:53;;;;;;;4.47;2.80;;;;;;;23.67;37.98;98953.97;4956582;28;20417;-74
2021/09/23 13:28:33;;;;;;;5.65;2.08;;;;;;;23.51;37.54;98955.97;4953601;28;20362;-74
2021/09/23 13:31:01;;;;;;;2.33;1.70;;;;;;;23.74;37.45;98944.69;4954679;28;20054;-74
2021/09/23 13:33:28;;;;;;;5.30;1.92;;;;;;;24.00;36.20;98955.25;4957804;28;20027;-74
2021/09/23 13:35:54;;;;;;;4.20;2.20;;;;;;;23.88;36.67;98945.50;4955158;28;20057;-74
2021/09/23 13:38:22;;;;;;;6.15;1.95;;;;;;;24.07;36.48;98941.44;4954850;28;20051;-74
2021/09/23 13:40:48;;;;;;;3.03;1.92;;;;;;;24.22;35.83;98942.16;4954423;28;20027;-74
2021/09/23 13:43:14;;;;;;;2.00;1.90;;;;;;;23.38;36.88;98941.88;4955845;28;20027;-74
2021/09/23 13:45:39;;;;;;;4.68;1.92;;;;;;;23.50;37.97;98925.19;4960318;28;20266;-74
2021/09/23 13:48:07;;;;;;;4.38;2.70;;;;;;;23.70;37.46;98927.31;4954796;28;20037;-74
2021/09/23 13:50:33;;;;;;;5.45;2.17;;;;;;;23.76;37.18;98931.34;4954506;28;20039;-74
2021/09/23 13:52:59;;;;;;;3.42;2.60;;;;;;;22.58;42.08;98941.84;4954715;28;20130;-74
2021/09/23 13:55:24;;;;;;;7.45;2.33;;;;;;;22.39;42.41;98933.41;4960067;28;20492;-74
2021/09/23 13:57:50;;;;;;;7.70;2.67;;;;;;;22.13;43.31;98946.44;4955820;28;20388;-74
2021/09/23 14:00:16;;;;;;;5.55;2.65;;;;;;;22.12;44.43;98944.75;4955351;28;20078;-73
2021/09/23 14:02:41;;;;;;;3.45;2.55;;;;;;;22.31;43.56;98942.66;4967485;28;20066;-73
2021/09/23 14:05:08;;;;;;;3.88;3.10;;;;;;;22.02;43.96;98948.88;4961950;28;20066;-73
2021/09/23 14:07:35;;;;;;;8.57;2.45;;;;;;;22.02;44.24;98949.72;4954228;28;20035;-73
2021/09/23 14:10:00;;;;;;;7.22;2.28;;;;;;;22.56;43.37;98938.44;4958615;28;20018;-73
2021/09/23 14:12:26;;;;;;;7.50;4.10;;;;;;;23.16;41.70;98942.47;4960132;28;20041;-73
2021/09/23 14:14:51;;;;;;;5.93;2.72;;;;;;;23.20;41.39;98949.25;4954233;28;20027;-73
2021/09/23 14:17:17;;;;;;;3.55;2.63;;;;;;;23.49;40.48;98955.22;4958960;28;20022;-73
2021/09/23 14:19:42;;;;;;;6.47;2.30;;;;;;;23.20;41.12;98950.09;4958129;28;20031;-73
2021/09/23 14:22:08;;;;;;;5.45;2.60;;;;;;;23.02;40.83;98951.34;4954005;28;20027;-74
2021/09/23 14:24:35;;;;;;;7.07;2.55;;;;;;;22.60;41.37;98950.50;4952459;28;20042;-74
2021/09/23 14:27:02;;;;;;;6.53;2.60;;;;;;;23.16;41.53;98958.31;4956802;28;20026;-74
2021/09/23 14:29:27;;;;;;;6.50;2.05;;;;;;;23.34;41.38;98947.34;4955532;28;20049;-74
2021/09/23 14:31:53;;;;;;;4.13;2.40;;;;;;;23.19;41.54;98936.97;4964329;28;20068;-74
2021/09/23 14:34:18;;;;;;;6.40;1.95;;;;;;;23.10;42.39;98933.16;4961368;28;20034;-74
2021/09/23 14:36:45;;;;;;;6.07;2.20;;;;;;;22.45;42.38;98938.28;4962012;28;20027;-74
2021/09/23 14:39:11;;;;;;;4.70;2.42;;;;;;;23.11;42.49;98934.00;4953703;28;20023;-74
2021/09/23 14:41:37;;;;;;;4.80;2.22;;;;;;;22.92;43.06;98937.00;4953716;28;20423;-74
2021/09/23 14:44:02;;;;;;;4.32;2.25;;;;;;;23.20;41.26;98917.50;4960228;28;20022;-73
2021/09/23 14:46:28;;;;;;;3.55;2.25;;;;;;;22.87;41.84;98921.44;4961647;28;20118;-74
2021/09/23 14:48:53;;;;;;;3.47;2.53;;;;;;;22.65;42.46;98922.00;4954269;28;20373;-74
2021/09/23 14:51:20;;;;;;;12.10;2.30;;;;;;;22.35;42.46;98923.97;4954430;28;20071;-74
2021/09/23 14:53:45;;;;;;;18.45;12.85;;;;;;;22.71;43.53;98918.94;4960019;28;20399;-74
2021/09/23 14:56:13;;;;;;;4.47;2.60;;;;;;;23.09;42.64;98911.16;4957452;28;20110;-73
2021/09/23 14:58:46;;;;;;;7.53;2.58;;;;;;;23.13;42.62;98911.81;4956374;28;20034;-73
2021/09/23 15:01:13;;;;;;;6.68;2.40;;;;;;;23.02;42.69;98914.34;4954297;28;20026;-74
2021/09/23 15:03:40;;;;;;;2.38;1.92;;;;;;;22.77;44.28;98921.22;4963055;28;20024;-74
2021/09/23 15:06:06;;;;;;;6.47;2.55;;;;;;;22.88;43.08;98909.94;4959715;28;20026;-74
2021/09/23 15:08:31;;;;;;;4.65;2.60;;;;;;;22.97;43.66;98896.13;4959838;28;20396;-74
2021/09/23 15:10:56;;;;;;;5.68;2.65;;;;;;;22.91;43.29;98900.97;4955272;28;20026;-74
2021/09/23 15:13:22;;;;;;;6.85;2.50;;;;;;;22.68;44.00;98900.69;4955398;28;20023;-73
2021/09/23 15:15:47;;;;;;;4.63;2.42;;;;;;;22.74;44.24;98897.63;4961052;28;20165;-73
2021/09/23 15:18:13;;;;;;;2.80;2.30;;;;;;;22.72;44.71;98902.13;4953675;28;20035;-73
2021/09/23 15:20:38;;;;;;;4.07;2.40;;;;;;;22.55;44.28;98895.34;4958581;28;20031;-73
2021/09/23 15:23:04;;;;;;;5.10;2.80;;;;;;;22.68;44.73;98889.25;4961136;28;20096;-73
2021/09/23 15:25:30;;;;;;;5.90;2.95;;;;;;;22.66;43.69;98883.22;4967259;28;20023;-73
2021/09/23 15:27:57;;;;;;;6.18;3.10;;;;;;;22.65;43.70;98890.31;4957135;28;20023;-74
2021/09/23 15:30:24;;;;;;;4.55;2.25;;;;;;;22.57;43.69;98888.16;4961450;28;20027;-74
2021/09/23 15:32:49;;;;;;;2.97;2.13;;;;;;;22.66;41.76;98881.41;4956509;28;20038;-73
2021/09/23 15:35:14;;;;;;;5.60;2.50;;;;;;;22.62;41.09;98885.22;4956438;28;20424;-73
2021/09/23 15:37:40;;;;;;;3.75;2.40;;;;;;;22.48;41.97;98882.63;4962782;28;20034;-73
2021/09/23 15:40:06;;;;;;;2.38;1.95;;;;;;;22.51;40.34;98871.88;4960634;28;20038;-73
2021/09/23 15:42:32;;;;;;;1.98;1.88;;;;;;;22.46;41.20;98879.25;4957848;28;20106;-73
2021/09/23 15:44:57;;;;;;;6.00;2.20;;;;;;;22.44;39.95;98870.59;4961847;28;20158;-73
2021/09/23 15:47:24;;;;;;;3.55;1.95;;;;;;;22.53;39.38;98870.84;4953542;28;20038;-73
2021/09/23 15:49:49;;;;;;;2.63;1.90;;;;;;;22.56;38.49;98864.50;4955967;28;20038;-73
2021/09/23 15:52:15;;;;;;;7.78;2.20;;;;;;;22.43;39.07;98863.59;4958235;28;20022;-73